Latest Coastal Weather Observations for Maroochydore

IDQ60701

Issued at 8:55 am EST Friday 25 July 2014 (issued every 10 minutes, with the page automatically refreshed every 10 minutes)

About coastal observations | Map of coastal stations | Coastal observations for QLD | Marine services | Other Formats
Station Details ID: 040861 Name: SUNSHINE COAST AIRPORT Lat: -26.60 Lon: 153.09 Height: 3.3 m
Data from the previous 72 hours. | See also: Recent months at Maroochydore
Date/Time
EST
Temp

°C
Wind Pressure Rain
since 9am
mm
Weather Cloud Vis
km
Sea
Height
m
Swell
Dir
 
Speed
knots
Gust
knots
hPa Trend Height
m
Period
s
Dir
25/08:30am 14.6 W 3 5 1026.8 - 0.0 - - 10 - - - -
25/08:00am 13.0 WSW 3 4 1026.7 - 0.0 - Partly cloudy 10 - - - -
25/07:30am 9.6 SW 3 4 1026.4 - 0.0 - Partly cloudy 10 - - - -
25/07:00am 9.0 W 3 5 1026.0 - 0.0 - Partly cloudy 10 - - - -
25/06:45am 8.8 WSW 4 5 1025.9 - 0.0 - Partly cloudy 10 - - - -
25/06:30am 8.6 W 2 5 1025.6 - 0.0 - Partly cloudy 0.8 - - - -
25/06:10am 8.7 W 1 4 1025.5 - 0.0 - - 4 - - - -
25/06:04am 9.1 W 3 4 1025.3 - 0.0 - - 10 - - - -
25/06:00am 8.9 W 3 4 1025.3 - 0.0 - - 10 - - - -
25/05:30am 8.1 WSW 4 4 1024.9 - 0.0 - - 0.9 - - - -
25/05:19am 8.4 SW 4 4 1024.8 - 0.0 - - 4 - - - -
25/05:00am 8.8 SW 3 4 1024.5 - 0.0 - - 0.7 - - - -
25/04:37am 9.1 SW 3 4 1024.4 - 0.0 - - 5 - - - -
25/04:30am 9.7 SW 4 5 1024.3 - 0.0 - - 10 - - - -
25/04:28am 9.9 SW 4 5 1024.3 - 0.0 - - 10 - - - -
25/04:00am 9.3 W 4 4 1024.1 - 0.0 - - 0.7 - - - -
25/03:49am 9.7 W 4 6 1024.2 - 0.0 - Partly cloudy 6 - - - -
25/03:30am 10.1 W 5 5 1024.1 - 0.0 - Partly cloudy 10 - - - -
25/03:19am 9.7 W 5 5 1024.3 - 0.0 - Partly cloudy 7 - - - -
25/03:00am 10.0 WNW 5 6 1024.1 - 0.0 - - 0.7 - - - -
25/02:30am 9.9 W 5 5 1024.1 - 0.0 - - 6 - - - -
25/02:00am 9.4 WSW 4 5 1024.0 - 0.0 - - 6 - - - -
25/01:35am 10.4 WSW 4 5 1024.3 - 0.0 - - 5 - - - -
25/01:32am 10.5 WSW 4 5 1024.3 - 0.0 - - 10 - - - -
25/01:30am 10.5 WSW 4 5 1024.3 - 0.0 - - 10 - - - -
25/01:00am 10.0 W 4 4 1024.5 - 0.0 - - 3 - - - -
25/12:59am 10.1 WSW 4 4 1024.5 - 0.0 - - 4 - - - -
25/12:58am 10.3 WSW 4 4 1024.5 - 0.0 - - 7 - - - -
25/12:30am 10.5 W 5 5 1024.5 - 0.0 - - 0.7 - - - -
25/12:00am 10.7 W 5 6 1024.4 - 0.0 - - 2 - - - -
 
Date/Time
EST
Temp

°C
Wind Pressure Rain
since 9am
mm
Weather Cloud Vis
km
Sea
Height
m
Swell
Dir
 
Speed
knots
Gust
knots
hPa Trend Height
m
Period
s
Dir
24/11:30pm 10.5 W 4 4 1024.5 - 0.0 - - 2 - - - -
24/11:18pm 10.8 W 4 5 1024.5 - 0.0 - - 6 - - - -
24/11:00pm 11.2 W 4 5 1024.5 - 0.0 - - 10 - - - -
24/10:30pm 12.0 WSW 3 4 1024.6 - 0.0 - Partly cloudy 10 - - - -
24/10:00pm 11.9 WSW 3 4 1024.7 - 0.0 - Partly cloudy 10 - - - -
24/09:30pm 13.2 WSW 3 4 1024.6 - 0.0 - Partly cloudy 10 - - - -
24/09:00pm 13.7 WSW 5 7 1024.5 - 0.0 - Partly cloudy 10 - - - -
24/08:30pm 13.6 SW 5 6 1024.2 - 0.0 - - 10 - - - -
24/08:00pm 14.5 WNW 3 5 1023.9 - 0.0 - - 10 - - - -
24/07:30pm 17.6 NE 8 9 1023.4 - 0.0 - - 10 - - - -
24/07:00pm 17.9 NE 8 11 1023.2 - 0.0 - Partly cloudy 10 - - - -
24/06:30pm 18.4 NE 7 9 1022.8 - 0.0 - Partly cloudy 10 - - - -
24/06:00pm 18.1 ENE 7 9 1022.3 - 0.0 - - 10 - - - -
24/05:30pm 18.5 ENE 7 9 1022.0 - 0.0 - - 10 - - - -
24/05:00pm 18.8 E 7 9 1021.7 - 0.0 - - 10 - - - -
24/04:30pm 19.5 E 7 9 1021.5 - 0.0 - - 10 - - - -
24/04:00pm 20.1 E 8 10 1021.3 - 0.0 - - 10 - - - -
24/03:30pm 20.2 E 8 9 1021.2 - 0.0 - - 10 - - - -
24/03:00pm 20.9 E 7 10 1021.3 - 0.0 - - 10 - - - -
24/02:30pm 20.5 E 7 11 1021.3 - 0.0 - - 10 - - - -
24/02:00pm 21.0 ESE 9 11 1021.3 - 0.0 - - 10 - - - -
24/01:30pm 21.2 ESE 9 11 1021.4 - 0.0 - - 10 - - - -
24/01:00pm 21.1 SE 8 10 1021.5 - 0.0 - - 10 - - - -
24/12:30pm 21.1 ESE 7 9 1021.9 - 0.0 - - 10 - - - -
24/12:00pm 21.0 ESE 7 9 1022.0 - 0.0 - - 10 - - - -
24/11:30am 21.3 ESE 7 9 1022.4 - 0.0 - - 10 - - - -
24/11:00am 20.8 ESE 7 9 1023.1 - 0.0 - - 10 - - - -
24/10:30am 20.5 SE 7 9 1023.3 - 0.0 - - 10 - - - -
24/10:00am 20.2 SSE 6 9 1023.1 - 0.0 - - 10 - - - -
24/09:30am 19.0 S 7 10 1022.8 - 0.0 - - 10 - - - -
24/09:00am 18.4 S 8 11 1022.9 - 0.2 - - 10 - - - -
24/08:30am 17.3 S 6 8 1022.8 - 0.2 - - 10 - - - -
24/08:00am 14.5 WSW 4 5 1022.8 - 0.2 - - 10 - - - -
24/07:30am 12.1 WSW 4 5 1022.7 - 0.2 - - 10 - - - -
24/07:00am 10.2 WSW 3 4 1022.4 - 0.2 - - 10 - - - -
24/06:30am 10.0 WSW 4 5 1022.1 - 0.2 - - 10 - - - -
24/06:00am 10.5 WSW 3 4 1021.7 - 0.2 - - 10 - - - -
24/05:30am 10.6 WSW 4 5 1021.5 - 0.2 - - 10 - - - -
24/05:00am 11.1 WSW 5 5 1021.2 - 0.2 - Partly cloudy 10 - - - -
24/04:30am 12.0 SW 5 6 1020.9 - 0.2 - Partly cloudy 10 - - - -
24/04:00am 12.0 WSW 5 6 1020.9 - 0.2 - Partly cloudy 10 - - - -
24/03:30am 12.5 SW 5 6 1021.2 - 0.2 - - 10 - - - -
24/03:00am 12.2 WSW 5 6 1021.3 - 0.2 - - 10 - - - -
24/02:30am 13.0 SW 5 5 1021.3 - 0.2 - - 10 - - - -
24/02:00am 13.2 WSW 5 6 1021.4 - 0.2 - - 10 - - - -
24/01:30am 13.4 SW 5 7 1021.5 - 0.2 - Partly cloudy 10 - - - -
24/01:00am 13.4 WSW 5 6 1021.5 - 0.2 - Partly cloudy 10 - - - -
24/12:30am 12.6 WSW 3 4 1021.3 - 0.2 - Partly cloudy 10 - - - -
24/12:00am 12.7 WSW 4 5 1021.5 - 0.2 - Partly cloudy 10 - - - -
 
Date/Time
EST
Temp

°C
Wind Pressure Rain
since 9am
mm
Weather Cloud Vis
km
Sea
Height
m
Swell
Dir
 
Speed
knots
Gust
knots
hPa Trend Height
m
Period
s
Dir
23/11:30pm 13.3 SSW 5 6 1021.6 - 0.2 - Partly cloudy 10 - - - -
23/11:00pm 13.5 WSW 5 6 1022.0 - 0.2 - Partly cloudy 10 - - - -
23/10:30pm 13.8 WSW 4 5 1022.3 - 0.2 - Partly cloudy 10 - - - -
23/10:00pm 13.6 SSW 3 5 1022.1 - 0.2 - Partly cloudy 10 - - - -
23/09:30pm 13.7 SW 3 5 1022.1 - 0.2 - Partly cloudy 10 - - - -
23/09:00pm 13.9 SW 4 7 1022.0 - 0.2 - Cloudy 10 - - - -
23/08:30pm 13.5 WSW 5 8 1021.7 - 0.2 - Partly cloudy 10 - - - -
23/08:00pm 13.8 SW 5 6 1021.6 - 0.2 - Partly cloudy 10 - - - -
23/07:30pm 13.8 SW 5 6 1021.5 - 0.2 - Partly cloudy 10 - - - -
23/07:00pm 14.7 SSW 4 6 1021.3 - 0.2 - Partly cloudy 10 - - - -
23/06:30pm 14.5 SSW 5 6 1021.2 - 0.2 - Partly cloudy 10 - - - -
23/06:00pm 15.8 SSE 5 7 1021.0 - 0.2 - - 10 - - - -
23/05:30pm 16.6 SE 7 9 1020.8 - 0.2 - - 10 - - - -
23/05:00pm 16.9 SSE 7 9 1020.8 - 0.2 - - 10 - - - -
23/04:30pm 17.9 SE 9 12 1020.6 - 0.2 - - 10 - - - -
23/04:00pm 18.6 SE 9 13 1020.4 - 0.2 - - 10 - - - -
23/03:30pm 19.0 SE 11 14 1020.5 - 0.2 - - 10 - - - -
23/03:00pm 19.6 SE 11 15 1020.5 - 0.2 - - 10 - - - -
23/02:30pm 19.7 SE 12 14 1020.4 - 0.2 - - 10 - - - -
23/02:00pm 20.3 SE 11 15 1020.4 - 0.2 - - 10 - - - -
23/01:30pm 19.9 SE 13 17 1020.6 - 0.2 - - 10 - - - -
23/01:00pm 19.7 SE 13 16 1020.5 - 0.2 - - 10 - - - -
23/12:30pm 19.9 SE 13 15 1020.7 - 0.2 - - 10 - - - -
23/12:00pm 20.1 SE 13 17 1021.4 - 0.2 - - 10 - - - -
23/11:30am 20.2 SSE 9 13 1022.0 - 0.2 - - 10 - - - -
23/11:00am 19.3 SSE 11 14 1022.4 - 0.2 - - 10 - - - -
23/10:30am 18.8 S 12 16 1022.9 - 0.2 - - 10 - - - -
23/10:00am 18.0 S 12 16 1023.2 - 0.0 - - 10 - - - -
23/09:30am 17.5 S 13 17 1023.1 - 0.0 - - 10 - - - -
23/09:00am 16.8 S 9 13 1023.1 - 0.8 - - 10 - - - -
23/08:30am 15.9 S 10 13 1022.8 - 0.8 - - 10 - - - -
23/08:00am 14.8 SSW 8 11 1022.4 - 0.8 - - 10 - - - -
23/07:30am 12.7 SW 7 8 1022.3 - 0.8 - - 10 - - - -
23/07:00am 11.5 SW 7 9 1021.9 - 0.8 - - 10 - - - -
23/06:30am 11.0 SW 7 8 1021.5 - 0.8 - - 10 - - - -
23/06:00am 10.7 WSW 7 8 1021.0 - 0.8 - - 10 - - - -
23/05:30am 11.3 SW 6 8 1020.8 - 0.8 - - 10 - - - -
23/05:00am 12.1 SW 7 9 1020.4 - 0.8 - - 10 - - - -
23/04:30am 12.9 SSW 9 14 1020.1 - 0.8 - - 10 - - - -
23/04:00am 12.9 SSW 9 12 1019.8 - 0.8 - - 10 - - - -
23/03:30am 11.6 SW 6 9 1020.2 - 0.8 - - 10 - - - -
23/03:00am 11.8 SW 6 9 1020.3 - 0.8 - - 10 - - - -
23/02:30am 12.0 SW 7 9 1020.5 - 0.8 - - 10 - - - -
23/02:00am 11.7 SW 6 7 1020.5 - 0.8 - - 10 - - - -
23/01:30am 11.9 SW 6 8 1020.7 - 0.8 - Partly cloudy 10 - - - -
23/01:00am 12.0 SW 7 8 1020.7 - 0.8 - - 10 - - - -
23/12:30am 11.8 SW 7 8 1020.9 - 0.8 - - 10 - - - -
23/12:00am 11.2 SW 5 7 1021.0 - 0.8 - - 10 - - - -
 
Date/Time
EST
Temp

°C
Wind Pressure Rain
since 9am
mm
Weather Cloud Vis
km
Sea
Height
m
Swell
Dir
 
Speed
knots
Gust
knots
hPa Trend Height
m
Period
s
Dir
22/11:30pm 11.5 SW 4 5 1021.2 - 0.8 - - 10 - - - -
22/11:00pm 12.0 SW 5 7 1021.2 - 0.8 - - 10 - - - -
22/10:30pm 12.3 SW 7 9 1021.2 - 0.8 - - 10 - - - -
22/10:00pm 12.5 WSW 6 8 1021.6 - 0.6 - - 10 - - - -
22/09:30pm 13.0 SW 8 9 1021.6 - 0.6 - - 10 - - - -
22/09:00pm 13.3 SW 7 8 1021.5 - 0.6 - - 10 - - - -
22/08:30pm 14.0 SW 5 6 1021.4 - 0.6 - Partly cloudy 10 - - - -
22/08:00pm 14.8 W 4 5 1021.5 - 0.6 - Partly cloudy 10 - - - -
22/07:30pm 15.4 WSW 5 8 1021.4 - 0.6 - Partly cloudy 10 - - - -
22/07:00pm 16.2 SSE 13 18 1020.7 - 0.4 - Partly cloudy 10 - - - -
22/06:30pm 18.5 ESE 10 14 1020.1 - 0.2 - Partly cloudy 10 - - - -
22/06:00pm 18.2 ESE 10 12 1019.8 - 0.2 - Mostly cloudy 10 - - - -
22/05:30pm 18.0 SE 8 11 1019.6 - 0.2 - Partly cloudy 10 - - - -
22/05:00pm 18.1 ESE 7 9 1019.3 - 0.2 - - 10 - - - -
22/04:30pm 18.7 E 7 8 1019.1 - 0.2 - - 10 - - - -
22/04:00pm 19.2 E 7 10 1018.8 - 0.2 - - 10 - - - -
22/03:30pm 19.7 ESE 8 10 1018.9 - 0.2 - Partly cloudy 10 - - - -
22/03:00pm 19.9 ESE 8 10 1018.8 - 0.2 - Partly cloudy 10 - - - -
22/02:30pm 19.2 SE 9 11 1018.6 - 0.2 - Partly cloudy 10 - - - -
22/02:00pm 20.2 SE 9 11 1018.8 - 0.2 - - 10 - - - -
22/01:30pm 20.6 ESE 11 13 1019.1 - 0.2 - - 10 - - - -
22/01:00pm 19.7 ESE 10 12 1019.5 - 0.2 - - 10 - - - -
22/12:30pm 20.9 ESE 10 13 1019.8 - 0.0 - - 10 - - - -
22/12:00pm 20.9 SE 9 12 1020.4 - 0.0 - - 10 - - - -
22/11:30am 20.4 SE 9 11 1020.9 - 0.0 - - 10 - - - -
22/11:00am 19.7 S 9 12 1021.4 - 0.0 - - 10 - - - -
22/10:30am 19.7 SSW 10 12 1021.8 - 0.0 - - 10 - - - -
22/10:00am 19.0 SSE 11 13 1022.0 - 0.0 - - 10 - - - -
22/09:30am 18.2 S 10 13 1022.1 - 0.0 - - 10 - - - -
22/09:00am 17.8 SSW 9 14 1022.2 - 0.6 - - 10 - - - -

Other Formats:

Comma delimited format used in spreadsheet applications
http://www.bom.gov.au/fwo/IDQ60701/IDQ60701.94569.axf

JavaScript Object Notation format (JSON) in row-major order
http://www.bom.gov.au/fwo/IDQ60701/IDQ60701.94569.json